ADDS METAR Data INFO
IDs: Format: Raw Decoded Include TAF

Data at: 0113 UTC 20 Feb 2018

KSAN 200051Z 28017G27KT 10SM FEW050 FEW100 14/00 A2997 RMK AO2 PK WND 27027/0000 SLP147 T01390000
KSAN 192351Z 27021G24KT 10SM FEW035 FEW050 SCT100 14/02 A2997 RMK AO2 PK WND 30026/2258 SLP149 T01440017 10161 20144 56002
KSAN 192251Z 28020G24KT 10SM FEW035 SCT045 SCT100 16/01 A2998 RMK AO2 SLP150 T01560011
KSAN 192151Z 28013G24KT 10SM FEW035 SCT045 16/M01 A2997 RMK AO2 SLP149 T01561011
KSAN 192051Z 30019G24KT 10SM FEW035 SCT045 15/01 A2998 RMK AO2 SLP151 T01500006 58004
KSAN 191951Z 29016G21KT 10SM SCT035 BKN045 16/01 A2999 RMK AO2 PK WND 27026/1929 SLP154 T01560006
KSAN 191851Z 29013G22KT 10SM SCT035 BKN045 16/01 A3000 RMK AO2 SLP157 T01560006
KSAN 191751Z 28020G26KT 10SM SCT035 SCT045 16/02 A2999 RMK AO2 PK WND 27026/1750 SLP155 T01560022 10156 20128 51019
KSAN 191651Z 28013KT 10SM SCT035 SCT045 14/02 A2997 RMK AO2 SLP149 T01440022
KSAN 191551Z 29015G25KT 10SM SCT035 BKN045 13/02 A2996 RMK AO2 SLP144 T01330017
KSAN 191451Z 29014G22KT 10SM SCT035 BKN045 13/03 A2993 RMK AO2 SLP136 T01280033 53007
KSAN 191351Z 29010G20KT 10SM BKN050 13/02 A2993 RMK AO2 SLP133 T01330022
KSAN 191251Z 26015KT 10SM BKN047 13/02 A2991 RMK AO2 PK WND 29026/1232 SLP129 T01330022
KSAN 191151Z 27015G23KT 10SM BKN047 14/04 A2992 RMK AO2 SLP129 60000 T01390044 10156 20139 56006
KSAN 191051Z 25012KT 10SM BKN041 14/05 A2992 RMK AO2 SLP131 T01390050
KSAN 190951Z 27012KT 10SM BKN030 14/06 A2992 RMK AO2 SLP133 T01390061
KSAN 190851Z 28011G18KT 10SM BKN030 14/08 A2993 RMK AO2 RAB20E30 SLP135 P0000 60000 T01440083 56003
KSAN 190751Z 24010KT 10SM BKN040 15/09 A2994 RMK AO2 SLP136 T01500089 402000117
KSAN 190722Z 24010KT 10SM SCT020 BKN034 15/11 A2993 RMK AO2 T01500106
KSAN 190651Z 24007KT 10SM BKN020 BKN027 16/10 A2993 RMK AO2 SLP136 T01560100
KSAN 190640Z 23009KT 10SM SCT020 BKN028 15/11 A2993 RMK AO2 T01500106
KSAN 190551Z 20008KT 10SM FEW026 BKN035 BKN041 16/09 A2994 RMK AO2 SLP139 T01560089 10178 20150 50000
KSAN 190515Z 24010KT 10SM SCT025 BKN030 16/09 A2995 RMK AO2 T01560094
KSAN 190451Z 19008KT 10SM SCT023 BKN029 16/09 A2995 RMK AO2 SLP141 T01560089
KSAN 190351Z 21008KT 10SM SCT020 BKN026 BKN060 16/08 A2994 RMK AO2 SLP138 T01560083
KSAN 190251Z 21007KT 10SM BKN020 BKN060 16/09 A2994 RMK AO2 SLP138 T01560094 55001
KSAN 190151Z 23008KT 10SM BKN023 BKN060 16/10 A2994 RMK AO2 SLP138 T01560100
KSAN 190121Z 26008KT 10SM BKN025 BKN060 16/11 A2994 RMK AO2 T01610106
KSAN 190051Z 23008KT 10SM SCT030 SCT060 BKN250 16/11 A2994 RMK AO2 SLP137 T01610106
KSAN 182351Z 25010KT 10SM FEW030 SCT060 SCT250 18/09 A2995 RMK AO2 SLP140 T01780094 10200 20178 55010
KSAN 182251Z 25008KT 10SM FEW030 SCT060 SCT250 19/06 A2994 RMK AO2 SLP138 T01890056
KSAN 182151Z 30008KT 10SM FEW030 SCT060 SCT250 19/10 A2996 RMK AO2 SLP145 T01940100
KSAN 182051Z 30006KT 10SM FEW030 BKN060 BKN250 19/11 A2998 RMK AO2 SLP150 T01890111 58017
KSAN 181951Z 30010KT 10SM FEW060 BKN250 19/11 A3001 RMK AO2 SLP160 T01940111
KSAN 181851Z 21006KT 10SM BKN060 BKN250 18/12 A3002 RMK AO2 SLP163 T01830117
KSAN 181751Z 33004KT 10SM BKN060 BKN250 18/12 A3003 RMK AO2 SLP167 T01780122 10183 20117 51004
KSAN 181651Z 00000KT 10SM SCT060 BKN250 17/09 A3003 RMK AO2 SLP167 T01670089
KSAN 181551Z 00000KT 10SM FEW007 SCT060 BKN250 14/02 A3002 RMK AO2 SLP166 T01440022
KSAN 181538Z 00000KT 10SM FEW007 BKN060 BKN250 14/02 A3002 RMK AO2 T01390017
KSAN 181451Z 00000KT 10SM BKN060 BKN200 12/01 A3001 RMK AO2 SLP163 T01220006 53002
KSAN 181351Z 00000KT 10SM SCT060 12/00 A3001 RMK AO2 SLP161 T01220000